Time;durP1;ratioP1;P1;durP2;ratioP2;P2;SDS_P1;SDS_P2;PMS_P1;PMS_P2;Temp;Humidity;BMP_temperature;BMP_pressure;BME280_temperature;BME280_humidity;BME280_pressure;Samples;Min_cycle;Max_cycle;Signal;HPM_P1;HPM_P2
2021/10/26 00:00:25;;;;;;;12.00;8.68;;;9.40;99.90;;;;;;4937978;29;20425;-75
2021/10/26 00:02:53;;;;;;;9.23;8.32;;;9.40;99.90;;;;;;4938006;29;20055;-76
2021/10/26 00:05:20;;;;;;;10.10;9.10;;;9.40;99.90;;;;;;4938360;29;20031;-76
2021/10/26 00:07:46;;;;;;;9.80;8.38;;;9.40;99.90;;;;;;4938169;29;20404;-76
2021/10/26 00:10:12;;;;;;;9.27;8.45;;;9.40;99.90;;;;;;4937616;29;20036;-75
2021/10/26 00:12:39;;;;;;;9.75;8.80;;;9.40;99.90;;;;;;4937368;29;20043;-76
2021/10/26 00:15:06;;;;;;;11.73;9.25;;;9.40;99.90;;;;;;4937735;29;20051;-75
2021/10/26 00:17:32;;;;;;;9.75;8.80;;;9.50;99.90;;;;;;4934978;29;20052;-75
2021/10/26 00:19:58;;;;;;;15.57;10.13;;;9.50;99.90;;;;;;4937954;29;20039;-75
2021/10/26 00:22:24;;;;;;;9.55;8.65;;;9.50;99.90;;;;;;4937545;29;20040;-75
2021/10/26 00:24:51;;;;;;;10.63;9.50;;;9.50;99.90;;;;;;4937856;29;20036;-75
2021/10/26 00:27:17;;;;;;;10.35;9.38;;;9.50;99.90;;;;;;4937651;29;20032;-75
2021/10/26 00:29:44;;;;;;;11.15;9.77;;;9.50;99.90;;;;;;4937619;29;20027;-76
2021/10/26 00:32:11;;;;;;;12.07;9.65;;;9.40;99.90;;;;;;4937917;29;20032;-75
2021/10/26 00:34:37;;;;;;;13.55;8.98;;;9.50;99.90;;;;;;4937335;29;20031;-75
2021/10/26 00:37:03;;;;;;;12.98;9.23;;;9.50;99.90;;;;;;4937252;29;20484;-75
2021/10/26 00:39:30;;;;;;;10.93;9.85;;;9.40;99.90;;;;;;4942101;29;20031;-74
2021/10/26 00:41:58;;;;;;;12.15;9.13;;;9.50;99.90;;;;;;4937888;29;20153;-75
2021/10/26 00:44:28;;;;;;;10.18;9.15;;;9.50;99.90;;;;;;4951482;28;20043;-76
2021/10/26 00:46:56;;;;;;;11.13;9.43;;;9.50;99.90;;;;;;4936122;29;20067;-75
2021/10/26 00:49:22;;;;;;;9.93;8.82;;;9.50;99.90;;;;;;4937731;29;20035;-77
2021/10/26 00:51:49;;;;;;;11.93;10.68;;;9.50;99.90;;;;;;4937404;29;20401;-75
2021/10/26 00:54:15;;;;;;;14.07;9.82;;;9.50;99.90;;;;;;4935563;29;20047;-75
2021/10/26 00:56:49;;;;;;;11.32;10.27;;;9.50;99.90;;;;;;4951575;28;20062;-75
2021/10/26 00:59:16;;;;;;;16.48;9.98;;;9.40;99.90;;;;;;4935917;29;20047;-75
2021/10/26 01:01:46;;;;;;;11.52;10.00;;;9.40;99.90;;;;;;4951245;28;20405;-75
2021/10/26 01:04:13;;;;;;;12.35;10.70;;;9.40;99.90;;;;;;4936894;29;20031;-75
2021/10/26 01:06:39;;;;;;;13.07;11.75;;;9.40;99.90;;;;;;4950993;28;20465;-74
2021/10/26 01:09:06;;;;;;;11.80;10.63;;;9.40;99.90;;;;;;4951556;28;20476;-75
2021/10/26 01:11:35;;;;;;;10.40;9.50;;;9.40;99.90;;;;;;4951237;29;20477;-75
2021/10/26 01:14:03;;;;;;;10.85;9.85;;;9.40;99.90;;;;;;4950931;28;20043;-75
2021/10/26 01:16:30;;;;;;;12.52;9.82;;;9.40;99.90;;;;;;4959767;28;20043;-75
2021/10/26 01:18:57;;;;;;;12.38;10.38;;;9.40;99.90;;;;;;4936877;29;20079;-75
2021/10/26 01:21:24;;;;;;;12.63;11.43;;;9.40;99.90;;;;;;4950936;28;20054;-75
2021/10/26 01:23:51;;;;;;;11.55;10.45;;;9.40;99.90;;;;;;4951277;28;20048;-76
2021/10/26 01:26:17;;;;;;;11.18;10.02;;;9.40;99.90;;;;;;4951419;28;20111;-75
2021/10/26 01:28:46;;;;;;;11.32;10.25;;;9.30;99.90;;;;;;4950571;28;20390;-75
2021/10/26 01:31:12;;;;;;;11.00;9.98;;;9.30;99.90;;;;;;4950562;28;20051;-76
2021/10/26 01:33:56;;;;;;;9.73;8.88;;;9.30;99.90;;;;;;4936569;29;20422;-75
2021/10/26 01:36:35;;;;;;;11.88;10.63;;;9.30;99.90;;;;;;4950171;28;20044;-75
2021/10/26 01:39:02;;;;;;;11.98;10.55;;;9.20;99.90;;;;;;4951015;28;20044;-75
2021/10/26 01:41:32;;;;;;;11.38;10.30;;;9.20;99.90;;;;;;4950420;28;20424;-76
2021/10/26 01:43:59;;;;;;;12.45;11.15;;;9.20;99.90;;;;;;4950992;28;20047;-75
2021/10/26 01:46:25;;;;;;;12.52;11.32;;;9.20;99.90;;;;;;4935705;29;20059;-76
2021/10/26 01:48:52;;;;;;;13.73;11.40;;;9.20;99.90;;;;;;4958694;28;20046;-75
2021/10/26 01:51:18;;;;;;;15.38;13.20;;;9.20;99.90;;;;;;4936754;29;20047;-75
2021/10/26 01:53:45;;;;;;;13.90;12.20;;;9.20;99.90;;;;;;4935544;29;20044;-75
2021/10/26 01:56:13;;;;;;;12.85;11.48;;;9.20;99.90;;;;;;4934332;29;20048;-76
2021/10/26 01:59:09;;;;;;;13.00;11.88;;;9.20;99.90;;;;;;4940103;29;20042;-75
2021/10/26 02:01:41;;;;;;;12.82;11.60;;;9.30;99.90;;;;;;4937295;28;20516;-75
2021/10/26 02:04:12;;;;;;;13.52;12.10;;;9.30;99.90;;;;;;4953151;28;20489;-75
2021/10/26 02:06:39;;;;;;;21.63;12.77;;;9.30;99.90;;;;;;4965114;28;20392;-75
2021/10/26 02:09:05;;;;;;;13.35;11.68;;;9.30;99.90;;;;;;4949251;29;20051;-76
2021/10/26 02:11:32;;;;;;;14.65;12.25;;;9.30;99.90;;;;;;4959828;28;20044;-75
2021/10/26 02:13:59;;;;;;;13.32;11.93;;;9.30;99.90;;;;;;4952240;28;20370;-75
2021/10/26 02:16:25;;;;;;;13.90;11.55;;;9.40;99.90;;;;;;4933995;29;20052;-76
2021/10/26 02:18:52;;;;;;;12.35;10.30;;;9.40;99.90;;;;;;4950005;28;20359;-76
2021/10/26 02:21:18;;;;;;;12.68;11.38;;;9.40;99.90;;;;;;4949659;28;20052;-76
2021/10/26 02:23:45;;;;;;;11.70;10.60;;;9.40;99.90;;;;;;4949840;28;20052;-76
2021/10/26 02:26:12;;;;;;;15.13;11.57;;;9.50;99.90;;;;;;4949985;28;20482;-76
2021/10/26 02:28:43;;;;;;;11.82;10.82;;;9.50;99.90;;;;;;4949855;28;20048;-75
2021/10/26 02:31:11;;;;;;;14.80;11.15;;;9.50;99.90;;;;;;4918735;29;20050;-76
2021/10/26 02:33:38;;;;;;;12.50;11.20;;;9.40;99.90;;;;;;4949000;28;20051;-76
2021/10/26 02:36:06;;;;;;;11.57;10.25;;;9.40;99.90;;;;;;4935144;29;20335;-76
2021/10/26 02:38:33;;;;;;;12.93;11.90;;;9.30;99.90;;;;;;4935246;29;20048;-76
2021/10/26 02:40:59;;;;;;;12.98;11.90;;;9.20;99.90;;;;;;4956318;28;20039;-76
2021/10/26 02:43:29;;;;;;;12.27;10.98;;;9.20;99.90;;;;;;4950938;29;20047;-76
2021/10/26 02:45:55;;;;;;;12.55;11.43;;;9.10;99.90;;;;;;4948586;29;20043;-76
2021/10/26 02:48:21;;;;;;;12.60;11.45;;;9.10;99.90;;;;;;4949347;28;20051;-76
2021/10/26 02:50:48;;;;;;;13.77;12.43;;;9.00;99.90;;;;;;4948895;28;20401;-76
2021/10/26 02:53:15;;;;;;;17.83;13.77;;;9.00;99.90;;;;;;4934998;29;20047;-75
2021/10/26 02:55:41;;;;;;;14.00;12.82;;;9.00;99.90;;;;;;4940665;29;20043;-75
2021/10/26 02:58:07;;;;;;;13.60;12.20;;;9.00;99.90;;;;;;4946965;29;20093;-76
2021/10/26 03:00:34;;;;;;;13.82;12.35;;;9.00;99.90;;;;;;4948381;28;20039;-76
2021/10/26 03:03:05;;;;;;;14.73;13.23;;;8.90;99.90;;;;;;4949128;28;20516;-76
2021/10/26 03:05:32;;;;;;;13.27;11.88;;;8.90;99.90;;;;;;4949572;28;20051;-76
2021/10/26 03:07:58;;;;;;;18.35;13.13;;;8.90;99.90;;;;;;4935061;29;20120;-75
2021/10/26 03:10:25;;;;;;;14.80;13.43;;;8.80;99.90;;;;;;4949890;28;20051;-76
2021/10/26 03:12:52;;;;;;;13.68;12.50;;;8.80;99.90;;;;;;4949500;28;20400;-76
2021/10/26 03:15:19;;;;;;;12.93;11.73;;;8.80;99.90;;;;;;4949634;28;20051;-76
2021/10/26 03:17:45;;;;;;;12.55;11.38;;;8.80;99.90;;;;;;4937916;29;20047;-75
2021/10/26 03:20:20;;;;;;;13.30;12.02;;;8.70;99.90;;;;;;4948684;29;20158;-78
2021/10/26 03:22:47;;;;;;;15.38;13.15;;;8.80;99.90;;;;;;4933274;29;20512;-76
2021/10/26 03:25:14;;;;;;;15.10;13.48;;;8.70;99.90;;;;;;4960529;28;20404;-76
2021/10/26 03:27:40;;;;;;;14.55;13.07;;;8.80;99.90;;;;;;4932799;29;20040;-76
2021/10/26 03:30:12;;;;;;;15.20;13.85;;;8.90;99.90;;;;;;4921940;29;20040;-76
2021/10/26 03:32:38;;;;;;;15.20;13.75;;;8.90;99.90;;;;;;4948177;29;20051;-75
2021/10/26 03:35:26;;;;;;;15.38;13.70;;;8.80;99.90;;;;;;4949272;28;20047;-75
2021/10/26 03:37:52;;;;;;;15.20;13.35;;;8.80;99.90;;;;;;4949165;28;20052;-75
2021/10/26 03:40:19;;;;;;;13.55;12.20;;;8.80;99.90;;;;;;4935041;29;20035;-76
2021/10/26 03:42:45;;;;;;;17.63;13.73;;;8.80;99.90;;;;;;4948673;28;20063;-76
2021/10/26 03:45:12;;;;;;;14.27;12.88;;;8.70;99.90;;;;;;4962095;28;20397;-76
2021/10/26 03:47:41;;;;;;;12.90;11.88;;;8.70;99.90;;;;;;4954962;28;20039;-76
2021/10/26 03:50:09;;;;;;;14.02;12.65;;;8.60;99.90;;;;;;4948568;28;20039;-76
2021/10/26 03:52:37;;;;;;;13.88;12.35;;;8.70;99.90;;;;;;4949676;28;20079;-75
2021/10/26 03:55:05;;;;;;;45.97;34.10;;;8.70;99.90;;;;;;4938403;29;20031;-75
2021/10/26 03:57:31;;;;;;;14.63;13.32;;;8.70;99.90;;;;;;4936194;29;20039;-76
2021/10/26 04:00:00;;;;;;;14.65;13.40;;;8.70;99.90;;;;;;4952655;28;20040;-76
2021/10/26 04:02:28;;;;;;;39.15;35.47;;;8.70;99.90;;;;;;4952122;28;20047;-78
2021/10/26 04:05:10;;;;;;;29.58;26.60;;;8.70;99.90;;;;;;4937038;29;20058;-76
2021/10/26 04:07:46;;;;;;;27.58;24.95;;;8.70;99.90;;;;;;4952804;28;20385;-75
2021/10/26 04:10:17;;;;;;;23.05;20.75;;;8.70;99.90;;;;;;4937851;29;20027;-76
2021/10/26 04:12:43;;;;;;;17.80;15.90;;;8.60;99.90;;;;;;4936250;29;20054;-75
2021/10/26 04:15:09;;;;;;;15.40;13.80;;;8.50;99.90;;;;;;4937670;29;20031;-77
2021/10/26 04:17:35;;;;;;;14.55;12.80;;;8.50;99.90;;;;;;4938967;29;20063;-77
2021/10/26 04:20:02;;;;;;;14.05;12.70;;;8.60;99.90;;;;;;4970852;28;20054;-78
2021/10/26 04:22:30;;;;;;;15.52;14.05;;;8.70;99.90;;;;;;4948770;29;20077;-77
2021/10/26 04:24:57;;;;;;;80.75;72.25;;;8.60;99.90;;;;;;4953032;28;20047;-76
2021/10/26 04:27:25;;;;;;;66.32;51.25;;;8.60;99.90;;;;;;4952170;28;20048;-76
2021/10/26 04:29:52;;;;;;;120.43;103.40;;;8.70;99.90;;;;;;4952318;28;20051;-76
2021/10/26 04:32:21;;;;;;;110.85;87.63;;;8.70;99.90;;;;;;4935915;29;20382;-77
2021/10/26 04:35:00;;;;;;;140.40;121.53;;;8.80;99.90;;;;;;4952378;28;20036;-76
2021/10/26 04:37:26;;;;;;;73.95;63.53;;;8.90;99.90;;;;;;4951909;28;20039;-76
2021/10/26 04:39:52;;;;;;;47.30;40.20;;;9.00;99.90;;;;;;4935625;29;20088;-78
2021/10/26 04:42:20;;;;;;;23.95;21.40;;;9.10;99.90;;;;;;4952331;28;20398;-76
2021/10/26 04:44:46;;;;;;;30.15;22.48;;;9.20;99.90;;;;;;4941054;29;20039;-77
2021/10/26 04:47:15;;;;;;;30.88;27.90;;;9.20;99.90;;;;;;4939075;29;20055;-77
2021/10/26 04:49:42;;;;;;;24.52;22.00;;;9.30;99.90;;;;;;4946629;29;20482;-77
2021/10/26 04:52:08;;;;;;;15.27;13.68;;;9.30;99.90;;;;;;4937265;29;20043;-77
2021/10/26 04:54:34;;;;;;;16.17;14.52;;;9.30;99.90;;;;;;4951176;28;20064;-77
2021/10/26 04:57:06;;;;;;;13.90;12.52;;;9.30;99.90;;;;;;4973660;28;20066;-77
2021/10/26 04:59:38;;;;;;;15.18;13.55;;;9.30;99.90;;;;;;4936669;28;20047;-77
2021/10/26 05:02:05;;;;;;;13.63;12.35;;;9.30;99.90;;;;;;4942484;29;20047;-76
2021/10/26 05:04:37;;;;;;;12.77;11.68;;;9.20;99.90;;;;;;4939542;29;20481;-77
2021/10/26 05:07:03;;;;;;;13.23;10.77;;;9.20;99.90;;;;;;4936893;29;20035;-76
2021/10/26 05:09:30;;;;;;;18.40;16.33;;;9.10;99.90;;;;;;4920460;29;20056;-78
2021/10/26 05:11:57;;;;;;;17.85;12.85;;;9.10;99.90;;;;;;4951314;28;20373;-76
2021/10/26 05:14:25;;;;;;;13.25;12.02;;;9.00;99.90;;;;;;4951100;28;20044;-77
2021/10/26 05:17:13;;;;;;;15.02;13.45;;;9.10;99.90;;;;;;4936752;29;20512;-75
2021/10/26 05:19:59;;;;;;;198.45;176.18;;;9.10;99.90;;;;;;4936490;29;20043;-76
2021/10/26 05:23:05;;;;;;;72.90;60.63;;;9.20;99.90;;;;;;4936117;29;20521;-74
2021/10/26 05:25:41;;;;;;;21.13;16.02;;;9.20;99.90;;;;;;4942724;28;20041;-76
2021/10/26 05:28:13;;;;;;;17.55;13.38;;;9.30;99.90;;;;;;4951393;28;20401;-76
2021/10/26 05:30:40;;;;;;;14.00;12.70;;;9.30;99.90;;;;;;4951093;28;20052;-76
2021/10/26 05:33:06;;;;;;;14.52;12.82;;;9.30;99.90;;;;;;4950596;28;20052;-76
2021/10/26 05:35:32;;;;;;;14.50;13.05;;;9.40;99.90;;;;;;4936062;29;20032;-77
2021/10/26 05:37:59;;;;;;;50.70;42.58;;;9.40;99.90;;;;;;4936515;29;20040;-76
2021/10/26 05:40:25;;;;;;;22.85;19.50;;;9.40;99.90;;;;;;4936981;29;20039;-76
2021/10/26 05:42:51;;;;;;;26.25;23.17;;;9.40;99.90;;;;;;4950115;28;20115;-76
2021/10/26 05:45:19;;;;;;;63.15;47.88;;;9.40;99.90;;;;;;4936183;29;20039;-76
2021/10/26 05:47:45;;;;;;;15.52;14.15;;;9.40;99.90;;;;;;4935084;29;20031;-76
2021/10/26 05:50:12;;;;;;;13.30;12.15;;;9.40;99.90;;;;;;4937152;29;20035;-76
2021/10/26 05:52:39;;;;;;;14.02;11.98;;;9.40;99.90;;;;;;4935954;29;20477;-76
2021/10/26 05:55:05;;;;;;;13.18;11.98;;;9.40;99.90;;;;;;4937225;29;20056;-75
2021/10/26 05:57:32;;;;;;;22.85;12.45;;;9.40;99.90;;;;;;4950015;29;20047;-77
2021/10/26 05:59:59;;;;;;;13.80;11.57;;;9.50;99.90;;;;;;4943887;29;20050;-76
2021/10/26 06:02:25;;;;;;;13.57;11.45;;;9.50;99.90;;;;;;4950494;29;20051;-77
2021/10/26 06:04:52;;;;;;;14.75;13.40;;;9.50;99.90;;;;;;4935816;29;20032;-76
2021/10/26 06:07:18;;;;;;;17.25;13.77;;;9.50;99.90;;;;;;4936120;29;20484;-76
2021/10/26 06:09:45;;;;;;;15.15;12.93;;;9.60;99.90;;;;;;4960515;28;20048;-77
2021/10/26 06:12:18;;;;;;;15.07;13.57;;;9.60;99.90;;;;;;4958485;28;20055;-77
2021/10/26 06:14:45;;;;;;;17.90;14.98;;;9.60;99.90;;;;;;4951667;28;20503;-77
2021/10/26 06:17:11;;;;;;;16.25;14.70;;;9.60;99.90;;;;;;4933669;29;20496;-76
2021/10/26 06:19:38;;;;;;;14.38;12.95;;;9.60;99.90;;;;;;4950302;28;20040;-77
2021/10/26 06:22:04;;;;;;;284.55;221.55;;;9.60;99.90;;;;;;4936174;29;20062;-76
2021/10/26 06:24:31;;;;;;;44.05;29.40;;;9.60;99.90;;;;;;4950943;29;20039;-77
2021/10/26 06:26:58;;;;;;;16.63;14.90;;;9.60;99.90;;;;;;4939510;29;20078;-76
2021/10/26 06:29:24;;;;;;;17.17;15.40;;;9.60;99.90;;;;;;4954387;29;20389;-76
2021/10/26 06:32:12;;;;;;;62.10;47.88;;;9.60;99.90;;;;;;4932281;29;20044;-76
2021/10/26 06:34:38;;;;;;;19.02;16.20;;;9.70;99.90;;;;;;4951922;28;20066;-76
2021/10/26 06:37:05;;;;;;;36.75;32.20;;;9.70;99.90;;;;;;4950970;28;20043;-77
2021/10/26 06:39:31;;;;;;;37.70;30.23;;;9.70;99.90;;;;;;4949638;28;20044;-75
2021/10/26 06:41:59;;;;;;;18.80;15.70;;;9.70;99.90;;;;;;4950136;28;20043;-76
2021/10/26 06:44:48;;;;;;;21.00;14.60;;;9.70;99.90;;;;;;4932304;29;20476;-76
2021/10/26 06:47:35;;;;;;;16.60;15.07;;;9.70;99.90;;;;;;4935873;28;20508;-76
2021/10/26 06:50:21;;;;;;;17.45;15.63;;;9.70;99.90;;;;;;4941664;28;20512;-76
2021/10/26 06:53:05;;;;;;;21.23;18.95;;;9.70;99.90;;;;;;4941735;28;20058;-76
2021/10/26 06:55:59;;;;;;;21.08;18.90;;;9.80;99.90;;;;;;4934612;29;20044;-76
2021/10/26 06:58:43;;;;;;;20.40;18.20;;;9.80;99.90;;;;;;4934502;29;20039;-76
2021/10/26 07:01:28;;;;;;;22.20;19.27;;;9.80;99.90;;;;;;4941253;29;20059;-75
2021/10/26 07:04:04;;;;;;;23.20;19.30;;;9.90;99.90;;;;;;4936187;29;20048;-76
2021/10/26 07:06:40;;;;;;;20.65;18.95;;;9.90;99.90;;;;;;4949051;28;20044;-76
2021/10/26 07:09:25;;;;;;;25.77;23.60;;;9.90;99.90;;;;;;4935025;29;20042;-76
2021/10/26 07:12:08;;;;;;;24.42;22.23;;;9.90;99.90;;;;;;4933802;29;20055;-76
2021/10/26 07:14:34;;;;;;;20.98;18.98;;;9.90;99.90;;;;;;4934512;29;20039;-77
2021/10/26 07:17:02;;;;;;;20.85;18.83;;;9.90;99.90;;;;;;4949142;28;20044;-76
2021/10/26 07:19:28;;;;;;;22.27;20.15;;;9.90;99.90;;;;;;4949017;28;20044;-77
2021/10/26 07:22:13;;;;;;;22.88;20.58;;;9.90;99.90;;;;;;4934895;29;20047;-77
2021/10/26 07:25:01;;;;;;;20.65;18.73;;;10.00;99.90;;;;;;4941433;29;20047;-76
2021/10/26 07:27:28;;;;;;;21.38;19.50;;;10.00;99.90;;;;;;4955592;28;20043;-77
2021/10/26 07:29:54;;;;;;;23.33;21.13;;;10.00;99.90;;;;;;4946465;29;20039;-77
2021/10/26 07:32:21;;;;;;;25.15;22.27;;;10.10;99.90;;;;;;4952994;28;20043;-77
2021/10/26 07:34:48;;;;;;;23.42;20.98;;;10.10;99.90;;;;;;4952586;28;20377;-77
2021/10/26 07:37:16;;;;;;;22.58;20.55;;;10.20;99.90;;;;;;4938603;29;20044;-77
2021/10/26 07:39:54;;;;;;;24.42;22.13;;;10.20;99.90;;;;;;4952438;28;20040;-77
2021/10/26 07:42:24;;;;;;;23.10;21.10;;;10.20;99.90;;;;;;4936967;29;20413;-77
2021/10/26 07:45:09;;;;;;;22.15;19.83;;;10.30;99.90;;;;;;4938095;29;20072;-77
2021/10/26 07:47:37;;;;;;;24.30;20.40;;;10.30;99.90;;;;;;4942229;29;20051;-77
2021/10/26 07:50:06;;;;;;;20.98;18.85;;;10.40;99.90;;;;;;4948468;29;20044;-77
2021/10/26 07:52:34;;;;;;;22.00;19.65;;;10.40;99.90;;;;;;4952299;28;20110;-77
2021/10/26 07:55:21;;;;;;;21.50;19.27;;;10.40;99.90;;;;;;4926965;29;20047;-77
2021/10/26 07:57:49;;;;;;;22.95;19.08;;;10.50;99.90;;;;;;4951937;28;20500;-77
2021/10/26 08:00:18;;;;;;;20.40;17.58;;;10.50;99.90;;;;;;4953423;28;20055;-77
2021/10/26 08:02:48;;;;;;;19.75;17.88;;;10.60;99.90;;;;;;4938871;29;20054;-78
2021/10/26 08:05:32;;;;;;;18.48;15.68;;;10.60;99.90;;;;;;4940389;29;20047;-77
2021/10/26 08:08:00;;;;;;;17.92;16.17;;;10.60;99.90;;;;;;4952423;28;20039;-77
2021/10/26 08:10:27;;;;;;;53.95;48.33;;;10.70;99.90;;;;;;4937677;29;20032;-76
2021/10/26 08:12:54;;;;;;;57.05;51.50;;;10.70;99.90;;;;;;4936683;29;20506;-76
2021/10/26 08:15:20;;;;;;;23.42;21.00;;;10.80;99.90;;;;;;4952766;28;20046;-76
2021/10/26 08:17:47;;;;;;;22.15;18.38;;;10.80;99.90;;;;;;4935707;29;20421;-77
2021/10/26 08:20:13;;;;;;;16.23;14.60;;;10.80;99.90;;;;;;4938133;29;20036;-76
2021/10/26 08:22:44;;;;;;;20.75;18.67;;;10.90;99.90;;;;;;4936522;29;20059;-76
2021/10/26 08:25:20;;;;;;;187.18;167.02;;;10.90;99.90;;;;;;4951991;29;20125;-76
2021/10/26 08:27:49;;;;;;;28.60;19.60;;;10.90;99.90;;;;;;4952025;29;20500;-76
2021/10/26 08:30:26;;;;;;;89.40;79.88;;;10.90;99.90;;;;;;4952420;28;20397;-76
2021/10/26 08:32:58;;;;;;;34.55;27.92;;;11.00;99.90;;;;;;4951525;28;20047;-77
2021/10/26 08:35:29;;;;;;;125.45;112.15;;;11.00;99.90;;;;;;4960013;28;20045;-77
2021/10/26 08:38:04;;;;;;;25.50;20.52;;;11.10;99.90;;;;;;4951322;29;20038;-77
2021/10/26 08:40:46;;;;;;;19.42;15.65;;;11.20;99.90;;;;;;4940575;29;20048;-77
2021/10/26 08:43:21;;;;;;;16.00;13.18;;;11.40;99.90;;;;;;4951711;28;20058;-77
2021/10/26 08:45:48;;;;;;;21.17;12.65;;;11.50;99.90;;;;;;4935423;29;20044;-77
2021/10/26 08:48:24;;;;;;;14.30;12.18;;;11.50;99.90;;;;;;4952167;28;20040;-77
2021/10/26 08:50:56;;;;;;;31.30;28.20;;;11.50;99.90;;;;;;4936762;29;20044;-77
2021/10/26 08:53:26;;;;;;;19.40;15.18;;;11.60;99.90;;;;;;4951886;28;20054;-76
2021/10/26 08:56:00;;;;;;;123.25;110.55;;;11.70;99.90;;;;;;4937038;29;20043;-77
2021/10/26 08:58:45;;;;;;;30.35;19.55;;;11.90;99.90;;;;;;4942748;28;20515;-77
2021/10/26 09:01:13;;;;;;;24.80;20.08;;;12.20;99.90;;;;;;4935618;29;20048;-77
2021/10/26 09:03:50;;;;;;;19.35;15.35;;;12.30;99.90;;;;;;4950736;28;20054;-77
2021/10/26 09:06:25;;;;;;;15.45;13.80;;;12.30;99.90;;;;;;4935240;29;20046;-77
2021/10/26 09:08:54;;;;;;;14.80;13.25;;;12.20;99.90;;;;;;4950940;28;20051;-77
2021/10/26 09:11:32;;;;;;;14.68;13.02;;;12.10;99.90;;;;;;4951980;28;20044;-77
2021/10/26 09:17:28;;;;;;;8.95;8.07;;;12.20;99.90;;;;;;4936431;29;20050;-77
2021/10/26 09:20:21;;;;;;;15.95;12.45;;;12.30;99.90;;;;;;4937410;29;20058;-77
2021/10/26 09:22:54;;;;;;;12.70;11.55;;;12.30;99.90;;;;;;4950859;28;20048;-77
2021/10/26 09:25:30;;;;;;;9.48;8.52;;;12.40;99.90;;;;;;4936753;29;20035;-77
2021/10/26 09:28:14;;;;;;;9.95;8.95;;;12.40;99.90;;;;;;4950834;28;20043;-79
2021/10/26 09:31:07;;;;;;;9.23;8.32;;;12.30;99.90;;;;;;4936577;29;20036;-77
2021/10/26 09:33:39;;;;;;;11.63;10.20;;;12.30;99.90;;;;;;4949513;28;20071;-77
2021/10/26 09:36:26;;;;;;;11.93;9.48;;;12.20;99.90;;;;;;4936410;29;20039;-77
2021/10/26 09:39:06;;;;;;;10.80;9.75;;;12.30;99.90;;;;;;4936159;29;20031;-78
2021/10/26 09:41:34;;;;;;;18.55;16.75;;;12.30;99.90;;;;;;4951160;28;20036;-78
2021/10/26 09:44:15;;;;;;;14.60;12.30;;;12.40;99.90;;;;;;4935944;29;20497;-77
2021/10/26 09:46:54;;;;;;;17.02;11.20;;;12.50;99.90;;;;;;4936052;29;20039;-78
2021/10/26 09:49:36;;;;;;;11.25;9.85;;;12.40;99.90;;;;;;4936100;29;20040;-78
2021/10/26 09:52:20;;;;;;;14.32;9.40;;;12.50;99.90;;;;;;4950008;28;20047;-78
2021/10/26 09:55:07;;;;;;;10.57;9.48;;;12.60;99.90;;;;;;4935384;29;20043;-78
2021/10/26 09:57:36;;;;;;;10.55;9.45;;;12.60;99.90;;;;;;4950762;28;20377;-78
2021/10/26 10:00:06;;;;;;;14.48;12.25;;;12.70;99.90;;;;;;4950476;28;20059;-78
2021/10/26 10:02:39;;;;;;;130.40;101.75;;;12.90;99.90;;;;;;4941655;28;20039;-78
2021/10/26 10:05:24;;;;;;;79.35;64.50;;;13.20;99.90;;;;;;4936010;29;20046;-78
2021/10/26 10:07:51;;;;;;;13.63;9.30;;;13.40;99.90;;;;;;4933949;29;20042;-78
2021/10/26 10:10:17;;;;;;;14.30;10.45;;;13.60;99.90;;;;;;4935954;29;20036;-79
2021/10/26 10:12:45;;;;;;;16.85;12.60;;;14.00;99.90;;;;;;4950119;28;20040;-78
2021/10/26 10:15:14;;;;;;;219.32;180.82;;;14.50;99.90;;;;;;4935458;29;20063;-78
2021/10/26 10:17:40;;;;;;;43.22;32.28;;;14.90;98.60;;;;;;4944190;29;20059;-78
2021/10/26 10:20:10;;;;;;;17.23;11.63;;;15.20;96.40;;;;;;4950294;28;20031;-78
2021/10/26 10:22:41;;;;;;;36.15;20.20;;;15.00;94.60;;;;;;4935302;29;20054;-78
2021/10/26 10:25:10;;;;;;;11.38;7.60;;;14.80;95.20;;;;;;4947152;29;20046;-78
2021/10/26 10:27:40;;;;;;;15.35;13.13;;;14.70;94.20;;;;;;4943132;29;20027;-78
2021/10/26 10:30:09;;;;;;;8.02;5.38;;;14.60;94.90;;;;;;4935769;29;20047;-79
2021/10/26 10:32:38;;;;;;;12.55;10.02;;;14.50;95.30;;;;;;4935528;29;20500;-79
2021/10/26 10:35:08;;;;;;;13.73;10.63;;;14.30;95.30;;;;;;4934171;29;20405;-79
2021/10/26 14:10:46;;;;;;;;;;;15.70;76.20;;;;;;4820810;23;20081;-81
2021/10/26 14:13:12;;;;;;;9.27;5.35;;;15.60;76.80;;;;;;4967109;28;19914;-82
2021/10/26 14:15:39;;;;;;;17.02;12.20;;;15.60;78.00;;;;;;4954850;28;20323;-81
2021/10/26 14:18:05;;;;;;;5.47;3.15;;;15.50;77.80;;;;;;4955158;28;20062;-81
2021/10/26 14:20:59;;;;;;;56.95;41.03;;;15.40;78.20;;;;;;4955053;28;20035;-81
2021/10/26 14:23:22;;;;;;;6.88;3.30;;;15.30;78.00;;;;;;4955051;28;20043;-82
2021/10/26 14:25:52;;;;;;;3.40;2.72;;;15.20;78.50;;;;;;4957821;28;20039;-82
2021/10/26 14:28:19;;;;;;;27.20;17.70;;;15.20;79.40;;;;;;4958536;28;20043;-82
2021/10/26 14:30:46;;;;;;;7.90;3.47;;;15.20;78.50;;;;;;4960446;28;20038;-81
2021/10/26 14:33:13;;;;;;;4.82;3.28;;;15.20;79.70;;;;;;4958695;28;20035;-82
2021/10/26 14:35:43;;;;;;;3.00;2.58;;;15.20;80.50;;;;;;4964411;28;20039;-81
2021/10/26 14:54:37;;;;;;;7.75;5.40;;;15.50;80.30;;;;;;4957677;28;20039;-80
2021/10/26 14:57:03;;;;;;;5.63;5.13;;;15.50;80.00;;;;;;4962538;28;20042;-81
2021/10/26 14:59:30;;;;;;;7.05;5.88;;;15.50;81.10;;;;;;4968092;28;20050;-81
2021/10/26 15:01:56;;;;;;;7.28;5.47;;;15.50;80.50;;;;;;4954422;28;20416;-81
2021/10/26 15:04:22;;;;;;;6.70;4.25;;;15.50;79.80;;;;;;4963836;28;20037;-81
2021/10/26 15:06:48;;;;;;;6.20;5.35;;;15.50;79.70;;;;;;4968337;28;20035;-81
2021/10/26 15:11:45;;;;;;;5.95;3.78;;;15.50;79.80;;;;;;4954609;28;20055;-82
2021/10/26 15:14:14;;;;;;;5.82;2.78;;;15.50;80.30;;;;;;4958575;28;20464;-82
2021/10/26 15:16:45;;;;;;;4.95;3.20;;;15.40;80.80;;;;;;4968334;28;20035;-81
2021/10/26 15:19:24;;;;;;;6.47;4.53;;;15.30;81.30;;;;;;4968770;28;20045;-81
2021/10/26 15:35:22;;;;;;;4.20;2.58;;;14.90;83.30;;;;;;4976568;28;20031;-80
2021/10/26 15:37:48;;;;;;;3.75;2.70;;;14.80;80.80;;;;;;4963473;28;20042;-81
2021/10/26 15:40:14;;;;;;;3.30;2.60;;;14.70;80.00;;;;;;4969634;28;20043;-82
2021/10/26 15:42:41;;;;;;;2.85;2.60;;;14.70;79.60;;;;;;4956870;28;20044;-82
2021/10/26 15:45:07;;;;;;;2.20;1.90;;;14.70;80.90;;;;;;4953545;28;20054;-82
2021/10/26 15:47:34;;;;;;;2.92;2.15;;;14.60;80.00;;;;;;4955168;28;20040;-82
2021/10/26 15:50:05;;;;;;;4.30;2.20;;;14.60;79.80;;;;;;4972363;28;20039;-82
2021/10/26 15:52:32;;;;;;;2.25;1.90;;;14.50;81.40;;;;;;4957756;28;20047;-81
2021/10/26 15:54:59;;;;;;;5.65;2.92;;;14.40;80.70;;;;;;4957715;28;20054;-81
2021/10/26 15:57:27;;;;;;;3.55;2.10;;;14.30;81.60;;;;;;4957889;28;20035;-81
2021/10/26 15:59:54;;;;;;;4.63;2.80;;;14.20;82.20;;;;;;4956784;28;20032;-80
2021/10/26 16:02:21;;;;;;;4.22;2.17;;;14.10;82.30;;;;;;4974806;28;20037;-81
2021/10/26 16:04:48;;;;;;;3.30;2.10;;;14.00;83.30;;;;;;4957761;28;20364;-81
2021/10/26 16:07:16;;;;;;;7.47;2.67;;;13.80;82.50;;;;;;4958282;28;20039;-81
2021/10/26 16:09:56;;;;;;;3.85;2.63;;;13.70;82.80;;;;;;4956270;28;20476;-81
2021/10/26 16:12:35;;;;;;;2.88;1.80;;;13.60;83.00;;;;;;4959938;28;20051;-81
2021/10/26 16:15:14;;;;;;;9.48;8.45;;;13.60;83.60;;;;;;4957403;28;20390;-81
2021/10/26 16:17:41;;;;;;;6.10;2.97;;;13.40;84.20;;;;;;4957032;28;20031;-81
2021/10/26 16:20:08;;;;;;;38.20;25.52;;;13.20;85.40;;;;;;4957041;28;20031;-81
2021/10/26 16:22:34;;;;;;;12.05;7.70;;;13.10;86.10;;;;;;4970959;28;20046;-81
2021/10/26 16:25:02;;;;;;;72.50;53.22;;;12.90;88.10;;;;;;4972422;28;20046;-81
2021/10/26 16:27:28;;;;;;;40.97;32.10;;;12.60;88.90;;;;;;4956841;28;20058;-81
2021/10/26 16:29:56;;;;;;;12.25;7.53;;;12.50;90.60;;;;;;4962130;28;20031;-80
2021/10/26 16:32:24;;;;;;;11.82;10.30;;;12.30;91.80;;;;;;4970224;28;20042;-80
2021/10/26 16:34:50;;;;;;;23.45;19.13;;;12.20;92.40;;;;;;4955831;28;20495;-80
2021/10/26 16:37:17;;;;;;;10.15;9.13;;;12.00;93.10;;;;;;4964671;28;20484;-81
2021/10/26 16:39:45;;;;;;;5.30;4.80;;;11.80;94.10;;;;;;4964162;28;20035;-77
2021/10/26 16:45:30;;;;;;;6.32;4.40;;;11.50;96.90;;;;;;4937900;28;20046;-77
2021/10/26 16:48:06;;;;;;;9.43;4.18;;;11.40;98.80;;;;;;4967124;28;20396;-77
2021/10/26 16:50:34;;;;;;;4.78;4.25;;;11.20;99.90;;;;;;4966972;28;20066;-77
2021/10/26 16:53:02;;;;;;;7.80;4.22;;;11.10;99.90;;;;;;4965564;28;20400;-77
2021/10/26 16:55:29;;;;;;;5.43;4.07;;;11.00;99.90;;;;;;4966896;28;20472;-77
2021/10/26 16:57:55;;;;;;;5.57;4.20;;;10.90;99.90;;;;;;4962443;28;20031;-77
2021/10/26 17:00:22;;;;;;;6.53;5.03;;;10.80;99.90;;;;;;4965122;28;20482;-77
2021/10/26 17:02:54;;;;;;;6.40;4.55;;;10.80;99.90;;;;;;4965542;28;20027;-77
2021/10/26 17:05:20;;;;;;;6.20;4.88;;;10.70;99.90;;;;;;4965379;28;20472;-77